createdAt,value
2023-05-05T00:01:15.870Z,56.96
2023-05-05T00:03:42.520Z,56.88
2023-05-05T00:06:09.064Z,56.83
2023-05-05T00:08:35.454Z,57.02
2023-05-05T00:11:01.794Z,57.60
2023-05-05T00:13:28.110Z,56.75
2023-05-05T00:15:54.517Z,58.09
2023-05-05T00:18:21.418Z,57.99
2023-05-05T00:20:48.012Z,58.14
2023-05-05T00:23:17.173Z,57.93
2023-05-05T00:25:43.600Z,58.09
2023-05-05T00:28:10.257Z,58.48
2023-05-05T00:30:37.300Z,58.34
2023-05-05T00:33:04.182Z,58.59
2023-05-05T00:35:30.812Z,58.09
2023-05-05T00:37:57.236Z,58.77
2023-05-05T00:40:25.009Z,58.24
2023-05-05T00:42:51.479Z,58.50
2023-05-05T00:45:19.209Z,58.55
2023-05-05T00:47:51.333Z,58.20
2023-05-05T00:50:23.759Z,57.91
2023-05-05T00:52:52.744Z,58.04
2023-05-05T00:55:19.236Z,58.66
2023-05-05T00:57:45.914Z,58.76
2023-05-05T01:00:12.981Z,58.80
2023-05-05T01:02:40.362Z,58.86
2023-05-05T01:05:10.759Z,59.46
2023-05-05T01:07:43.713Z,59.09
2023-05-05T01:10:20.364Z,59.22
2023-05-05T01:13:05.250Z,59.34
2023-05-05T01:15:34.693Z,59.59
2023-05-05T01:18:18.082Z,59.36
2023-05-05T01:21:05.297Z,59.31
2023-05-05T01:24:05.344Z,59.45
2023-05-05T01:26:42.844Z,59.86
2023-05-05T01:29:20.195Z,60.35
2023-05-05T01:31:57.040Z,61.38
2023-05-05T01:34:27.514Z,61.23
2023-05-05T01:37:05.552Z,61.37
2023-05-05T01:39:34.825Z,61.20
2023-05-05T01:42:06.670Z,61.01
2023-05-05T01:44:34.860Z,61.16
2023-05-05T01:47:02.467Z,61.43
2023-05-05T01:49:30.113Z,61.92
2023-05-05T01:51:57.621Z,61.24
2023-05-05T01:54:25.739Z,61.07
2023-05-05T01:56:54.149Z,61.33
2023-05-05T01:59:21.611Z,61.84
2023-05-05T02:01:50.361Z,62.21
2023-05-05T02:04:18.465Z,62.00
2023-05-05T02:06:47.505Z,62.10
2023-05-05T02:09:15.111Z,61.60
2023-05-05T02:11:41.684Z,61.51
2023-05-05T02:14:10.831Z,61.83
2023-05-05T02:16:38.607Z,61.42
2023-05-05T02:19:05.494Z,61.24
2023-05-05T02:21:33.636Z,61.50
2023-05-05T02:24:00.981Z,61.46
2023-05-05T02:26:29.983Z,61.35
2023-05-05T02:29:27.493Z,61.14
2023-05-05T02:31:58.978Z,61.31
2023-05-05T02:34:27.179Z,61.38
2023-05-05T02:37:00.168Z,61.67
2023-05-05T02:39:47.346Z,61.74
2023-05-05T02:42:20.706Z,62.37
2023-05-05T02:44:49.220Z,62.63
2023-05-05T02:47:15.750Z,61.66
2023-05-05T02:49:42.860Z,61.49
2023-05-05T02:52:09.265Z,61.23
2023-05-05T02:54:35.889Z,61.60
2023-05-05T02:57:02.923Z,62.46
2023-05-05T02:59:53.011Z,62.27
2023-05-05T03:02:35.316Z,62.10
2023-05-05T03:05:13.220Z,61.68
2023-05-05T03:07:48.793Z,61.89
2023-05-05T03:10:20.051Z,61.94
2023-05-05T03:12:52.359Z,61.79
2023-05-05T03:15:22.207Z,62.72
2023-05-05T03:17:50.382Z,62.57
2023-05-05T03:20:17.339Z,62.37
2023-05-05T03:22:44.408Z,61.99
2023-05-05T03:25:10.795Z,61.80
2023-05-05T03:27:37.157Z,62.53
2023-05-05T03:30:03.812Z,62.64
2023-05-05T03:32:31.081Z,62.48
2023-05-05T03:34:57.474Z,62.95
2023-05-05T03:37:23.918Z,62.93
2023-05-05T03:39:50.252Z,63.25
2023-05-05T03:42:16.925Z,62.85
2023-05-05T03:44:43.685Z,62.93
2023-05-05T03:47:10.092Z,63.33
2023-05-05T03:49:36.527Z,62.61
2023-05-05T03:52:02.852Z,63.02
2023-05-05T03:54:29.261Z,62.86
2023-05-05T03:56:56.207Z,62.06
2023-05-05T03:59:22.568Z,62.46
2023-05-05T04:01:49.886Z,62.86
2023-05-05T04:04:16.550Z,63.42
2023-05-05T04:06:42.923Z,63.12
2023-05-05T04:09:09.271Z,63.36
2023-05-05T04:11:35.584Z,63.46
2023-05-05T04:14:01.936Z,63.67
2023-05-05T04:16:28.376Z,64.02
2023-05-05T04:18:55.283Z,63.02
2023-05-05T04:21:21.672Z,63.34
2023-05-05T04:23:48.184Z,63.54
2023-05-05T04:26:14.501Z,63.13
2023-05-05T04:28:41.889Z,63.23
2023-05-05T04:31:08.251Z,63.25
2023-05-05T04:33:34.600Z,63.73
2023-05-05T04:36:00.960Z,63.38
2023-05-05T04:38:27.424Z,63.04
2023-05-05T04:40:53.839Z,63.42
2023-05-05T04:43:20.806Z,63.37
2023-05-05T04:45:54.399Z,63.67
2023-05-05T04:48:20.925Z,63.13
2023-05-05T04:50:47.313Z,63.38
2023-05-05T04:53:13.661Z,63.86
2023-05-05T04:55:40.011Z,63.75
2023-05-05T04:58:06.427Z,63.31
2023-05-05T05:00:32.869Z,63.26
2023-05-05T05:02:59.285Z,64.08
2023-05-05T05:05:25.667Z,63.70
2023-05-05T05:07:51.989Z,63.71
2023-05-05T05:10:18.459Z,63.95
2023-05-05T05:12:47.660Z,63.96
2023-05-05T05:15:14.098Z,63.63
2023-05-05T05:17:40.511Z,64.51
2023-05-05T05:20:08.939Z,64.20
2023-05-05T05:22:38.142Z,64.53
2023-05-05T05:25:04.836Z,64.43
2023-05-05T05:27:31.181Z,64.12
2023-05-05T05:29:57.528Z,64.09
2023-05-05T05:32:23.851Z,63.41
2023-05-05T05:34:50.187Z,63.57
2023-05-05T05:37:16.536Z,63.07
2023-05-05T05:39:43.700Z,62.60
2023-05-05T05:42:10.188Z,63.25
2023-05-05T05:44:36.533Z,64.38
2023-05-05T05:47:02.873Z,64.46
2023-05-05T05:49:29.204Z,63.64
2023-05-05T05:51:55.552Z,63.90
2023-05-05T05:54:21.906Z,63.31
2023-05-05T05:56:48.240Z,63.24
2023-05-05T05:59:14.557Z,63.39
2023-05-05T06:01:41.158Z,62.35
2023-05-05T06:04:07.720Z,62.26
2023-05-05T06:06:34.258Z,62.39
2023-05-05T06:09:00.894Z,62.59
2023-05-05T06:11:27.251Z,62.39
2023-05-05T06:13:53.577Z,62.24
2023-05-05T06:16:19.925Z,62.23
2023-05-05T06:18:46.844Z,62.35
2023-05-05T06:21:13.415Z,62.12
2023-05-05T06:23:39.815Z,61.98
2023-05-05T06:26:06.146Z,61.48
2023-05-05T06:28:32.549Z,61.32
2023-05-05T06:30:58.890Z,61.42
2023-05-05T06:33:25.226Z,61.11
2023-05-05T06:35:52.222Z,61.19
2023-05-05T06:38:18.559Z,61.07
2023-05-05T06:40:47.441Z,59.64
2023-05-05T06:43:13.760Z,58.74
2023-05-05T06:45:40.776Z,58.61
2023-05-05T06:48:08.427Z,58.49
2023-05-05T06:50:34.824Z,58.76
2023-05-05T06:53:01.487Z,58.24
2023-05-05T06:55:27.870Z,58.66
2023-05-05T06:57:54.207Z,59.02
2023-05-05T07:00:22.016Z,59.49
2023-05-05T07:02:48.393Z,58.93
2023-05-05T07:05:14.794Z,58.34
2023-05-05T07:07:53.536Z,58.57
2023-05-05T07:10:21.360Z,58.06
2023-05-05T07:12:48.215Z,57.63
2023-05-05T07:15:26.834Z,57.26
2023-05-05T07:17:54.940Z,57.19
2023-05-05T07:20:21.328Z,57.18
2023-05-05T07:22:47.647Z,57.12
2023-05-05T07:25:13.967Z,57.18
2023-05-05T07:27:40.653Z,57.36
2023-05-05T07:30:12.298Z,57.14
2023-05-05T07:32:40.562Z,56.82
2023-05-05T07:35:07.172Z,56.79
2023-05-05T07:37:33.579Z,57.59
2023-05-05T07:39:59.913Z,57.32
2023-05-05T07:42:26.240Z,57.11
2023-05-05T07:44:52.848Z,57.27
2023-05-05T07:47:19.172Z,58.06
2023-05-05T07:49:45.672Z,57.41
2023-05-05T07:52:12.170Z,57.15
2023-05-05T07:54:38.523Z,57.13
2023-05-05T07:57:04.925Z,56.53
2023-05-05T07:59:31.340Z,54.94
2023-05-05T08:01:57.648Z,54.96
2023-05-05T08:04:24.046Z,53.32
2023-05-05T08:06:50.428Z,53.57
2023-05-05T08:09:16.762Z,53.33
2023-05-05T08:11:43.068Z,53.76
2023-05-05T08:14:09.452Z,53.62
2023-05-05T08:16:36.200Z,54.36
2023-05-05T08:19:03.006Z,53.78
2023-05-05T08:21:29.401Z,54.21
2023-05-05T08:23:55.732Z,53.56
2023-05-05T08:26:22.720Z,53.41
2023-05-05T08:28:49.137Z,53.17
2023-05-05T08:31:15.865Z,53.30
2023-05-05T08:33:42.226Z,52.85
2023-05-05T08:36:08.875Z,52.67
2023-05-05T08:38:36.206Z,52.25
2023-05-05T08:41:02.556Z,52.40
2023-05-05T08:43:28.873Z,51.61
2023-05-05T08:45:56.573Z,51.25
2023-05-05T08:48:27.562Z,50.88
2023-05-05T08:51:00.852Z,49.45
2023-05-05T08:54:11.574Z,49.26
2023-05-05T08:56:42.483Z,49.86
2023-05-05T08:59:11.776Z,49.52
2023-05-05T09:01:38.249Z,49.38
2023-05-05T09:04:04.927Z,50.28
2023-05-05T09:06:33.593Z,49.54
2023-05-05T09:09:00.868Z,49.48
2023-05-05T09:11:27.959Z,49.88
2023-05-05T09:13:55.422Z,49.61
2023-05-05T09:16:22.517Z,48.54
2023-05-05T09:18:48.865Z,48.71
2023-05-05T09:21:25.884Z,48.41
2023-05-05T09:24:09.241Z,48.77
2023-05-05T09:26:38.343Z,48.72
2023-05-05T09:29:05.466Z,49.04
2023-05-05T09:31:32.656Z,48.60
2023-05-05T09:34:01.003Z,47.99
2023-05-05T09:36:47.908Z,48.37
2023-05-05T09:39:19.224Z,48.33
2023-05-05T09:41:46.697Z,47.80
2023-05-05T09:44:15.973Z,48.63
2023-05-05T09:46:52.684Z,48.32
2023-05-05T09:49:23.366Z,47.60
2023-05-05T09:51:49.793Z,48.29
2023-05-05T09:54:43.160Z,47.57
2023-05-05T09:57:25.452Z,47.62
2023-05-05T09:59:59.711Z,47.30
2023-05-05T10:02:38.399Z,46.94
2023-05-05T10:05:07.511Z,47.02
2023-05-05T10:07:35.368Z,46.56
2023-05-05T10:10:03.822Z,46.24
2023-05-05T10:12:31.624Z,45.91
2023-05-05T10:15:02.409Z,45.85
2023-05-05T10:17:32.696Z,45.76
2023-05-05T10:20:01.035Z,45.84
2023-05-05T10:22:32.712Z,46.17
2023-05-05T10:25:09.304Z,45.93
2023-05-05T10:27:43.582Z,46.33
2023-05-05T10:30:20.075Z,46.42
2023-05-05T10:33:03.576Z,45.99
2023-05-05T10:35:40.025Z,45.88
2023-05-05T10:38:09.721Z,45.97
2023-05-05T10:40:36.107Z,45.98
2023-05-05T10:43:02.532Z,46.10
2023-05-05T10:45:29.121Z,45.99
2023-05-05T10:47:59.040Z,45.73
2023-05-05T10:50:38.418Z,44.96
2023-05-05T10:53:21.894Z,45.33
2023-05-05T10:56:12.115Z,44.94
2023-05-05T10:58:58.195Z,44.60
2023-05-05T11:01:31.913Z,44.83
2023-05-05T11:04:18.161Z,45.18
2023-05-05T11:07:13.415Z,44.90
2023-05-05T11:10:01.698Z,43.92
2023-05-05T11:12:29.206Z,44.10
2023-05-05T11:15:23.378Z,44.46
2023-05-05T11:17:49.992Z,44.25
2023-05-05T11:20:16.784Z,43.31
2023-05-05T11:23:05.346Z,44.05
2023-05-05T11:25:34.811Z,44.59
2023-05-05T11:28:14.338Z,44.05
2023-05-05T11:30:56.407Z,44.03
2023-05-05T11:33:30.776Z,43.12
2023-05-05T11:35:59.142Z,43.23
2023-05-05T11:38:40.403Z,43.20
2023-05-05T11:41:35.564Z,43.35
2023-05-05T11:44:18.479Z,43.30
2023-05-05T11:46:50.545Z,43.04
2023-05-05T11:49:39.364Z,43.73
2023-05-05T11:52:07.848Z,42.67
2023-05-05T11:54:47.444Z,42.16
2023-05-05T11:57:15.107Z,41.42
2023-05-05T12:00:01.097Z,40.69
2023-05-05T12:02:29.408Z,40.74
2023-05-05T12:04:57.030Z,41.10
2023-05-05T12:07:27.016Z,40.36
2023-05-05T12:09:53.712Z,40.29
2023-05-05T12:12:20.751Z,40.31
2023-05-05T12:14:52.568Z,40.51
2023-05-05T12:17:23.255Z,39.97
2023-05-05T12:19:51.947Z,40.08
2023-05-05T12:22:19.777Z,39.96
2023-05-05T12:24:55.045Z,40.34
2023-05-05T12:27:21.750Z,41.17
2023-05-05T12:29:48.175Z,41.94
2023-05-05T12:32:24.692Z,42.53
2023-05-05T12:34:54.217Z,42.52
2023-05-05T12:37:22.129Z,41.46
2023-05-05T12:39:49.553Z,41.20
2023-05-05T12:42:16.935Z,41.24
2023-05-05T12:44:46.677Z,40.91
2023-05-05T12:47:14.160Z,40.53
2023-05-05T12:49:51.180Z,39.84
2023-05-05T12:52:18.304Z,39.90
2023-05-05T12:54:59.052Z,39.64
2023-05-05T12:57:26.039Z,38.92
2023-05-05T12:59:53.614Z,38.83
2023-05-05T13:02:21.097Z,38.34
2023-05-05T13:04:54.399Z,38.06
2023-05-05T13:07:21.888Z,37.34
2023-05-05T13:09:49.828Z,38.01
2023-05-05T13:12:19.683Z,38.09
2023-05-05T13:14:46.645Z,37.68
2023-05-05T13:17:14.007Z,36.83
2023-05-05T13:19:46.201Z,36.67
2023-05-05T13:22:13.476Z,36.53
2023-05-05T13:24:50.952Z,36.93
2023-05-05T13:27:19.330Z,36.39
2023-05-05T13:29:45.944Z,37.04
2023-05-05T13:32:12.344Z,36.42
2023-05-05T13:34:39.089Z,36.96
2023-05-05T13:37:05.918Z,36.58
2023-05-05T13:39:32.270Z,36.79
2023-05-05T13:41:58.583Z,36.51
2023-05-05T13:44:24.937Z,37.58
2023-05-05T13:46:51.334Z,37.62
2023-05-05T13:49:17.941Z,37.90
2023-05-05T13:51:45.067Z,37.34
2023-05-05T13:54:11.397Z,36.71
2023-05-05T13:56:38.051Z,36.85
2023-05-05T13:59:04.424Z,36.23
2023-05-05T14:01:31.044Z,35.40
2023-05-05T14:03:57.985Z,36.07
2023-05-05T14:06:24.824Z,36.43
2023-05-05T14:08:51.585Z,35.77
2023-05-05T14:11:18.168Z,37.81
2023-05-05T14:13:46.332Z,37.69
2023-05-05T14:16:13.161Z,37.48
2023-05-05T14:18:39.533Z,37.57
2023-05-05T14:21:05.894Z,37.28
2023-05-05T14:23:32.501Z,37.89
2023-05-05T14:25:58.828Z,38.92
2023-05-05T14:28:25.236Z,38.76
2023-05-05T14:30:52.002Z,39.71
2023-05-05T14:33:18.342Z,39.30
2023-05-05T14:35:44.654Z,38.79
2023-05-05T14:38:11.023Z,39.68
2023-05-05T14:40:37.373Z,39.67
2023-05-05T14:43:03.744Z,41.01
2023-05-05T14:45:31.088Z,40.75
2023-05-05T14:47:57.417Z,41.06
2023-05-05T14:50:23.804Z,40.70
2023-05-05T14:52:50.319Z,40.50
2023-05-05T14:55:16.818Z,40.65
2023-05-05T14:57:43.217Z,40.67
2023-05-05T15:00:11.153Z,42.00
2023-05-05T15:02:37.686Z,41.77
2023-05-05T15:05:05.069Z,41.84
2023-05-05T15:07:31.481Z,42.43
2023-05-05T15:09:57.831Z,42.54
2023-05-05T15:12:24.232Z,42.27
2023-05-05T15:14:50.608Z,42.32
2023-05-05T15:17:17.020Z,43.01
2023-05-05T15:19:43.401Z,43.50
2023-05-05T15:22:09.780Z,44.01
2023-05-05T15:24:37.081Z,45.15
2023-05-05T15:27:03.619Z,50.89
2023-05-05T15:29:30.006Z,58.78
2023-05-05T15:31:56.380Z,59.83
2023-05-05T15:34:22.711Z,62.72
2023-05-05T15:39:15.412Z,63.35
2023-05-05T15:41:41.757Z,65.30
2023-05-05T15:44:08.533Z,64.69
2023-05-05T15:46:34.922Z,63.70
2023-05-05T15:49:01.364Z,65.21
2023-05-05T15:51:27.705Z,64.69
2023-05-05T15:53:54.097Z,64.29
2023-05-05T15:56:20.429Z,64.57
2023-05-05T15:58:46.738Z,62.85
2023-05-05T16:01:13.077Z,62.84
2023-05-05T16:03:39.456Z,63.38
2023-05-05T16:06:06.177Z,62.92
2023-05-05T16:08:32.556Z,62.98
2023-05-05T16:10:58.888Z,62.98
2023-05-05T16:13:25.221Z,63.28
2023-05-05T16:15:51.537Z,62.77
2023-05-05T16:18:17.945Z,62.18
2023-05-05T16:20:44.290Z,61.35
2023-05-05T16:23:12.033Z,59.82
2023-05-05T16:25:38.361Z,59.64
2023-05-05T16:28:04.793Z,61.18
2023-05-05T16:30:31.119Z,60.65
2023-05-05T16:32:57.487Z,60.19
2023-05-05T16:35:23.869Z,63.67
2023-05-05T16:37:50.205Z,63.29
2023-05-05T16:40:16.523Z,62.64
2023-05-05T16:42:44.425Z,62.27
2023-05-05T16:45:11.540Z,61.80
2023-05-05T16:47:38.163Z,61.38
2023-05-05T16:50:05.225Z,61.29
2023-05-05T16:52:31.541Z,61.23
2023-05-05T16:54:58.043Z,60.64
2023-05-05T16:57:24.441Z,60.59
2023-05-05T16:59:50.887Z,60.79
2023-05-05T17:02:17.240Z,59.69
2023-05-05T17:04:43.613Z,59.45
2023-05-05T17:07:09.952Z,58.98
2023-05-05T17:09:36.270Z,58.60
2023-05-05T17:12:04.220Z,58.09
2023-05-05T17:14:31.050Z,58.14
2023-05-05T17:16:57.854Z,59.37
2023-05-05T17:19:24.304Z,59.12
2023-05-05T17:21:50.713Z,58.83
2023-05-05T17:24:17.035Z,57.06
2023-05-05T17:26:43.418Z,57.04
2023-05-05T17:29:11.544Z,58.10
2023-05-05T17:31:39.205Z,60.69
2023-05-05T17:34:05.651Z,60.97
2023-05-05T17:36:32.058Z,63.46
2023-05-05T17:38:58.437Z,64.53
2023-05-05T17:41:25.558Z,64.48
2023-05-05T17:43:51.968Z,65.43
2023-05-05T17:46:18.391Z,65.94
2023-05-05T17:48:45.111Z,65.56
2023-05-05T17:51:11.525Z,64.44
2023-05-05T17:53:38.396Z,64.77
2023-05-05T17:56:06.645Z,64.53
2023-05-05T17:58:34.982Z,64.36
2023-05-05T18:01:01.645Z,64.80
2023-05-05T18:03:28.258Z,64.43
2023-05-05T18:05:54.770Z,65.17
2023-05-05T18:08:21.128Z,65.37
2023-05-05T18:10:47.556Z,64.94
2023-05-05T18:13:13.943Z,64.95
2023-05-05T18:15:40.372Z,64.93
2023-05-05T18:18:07.033Z,64.48
2023-05-05T18:20:33.422Z,64.38
2023-05-05T18:22:59.757Z,64.37
2023-05-05T18:25:26.138Z,64.83
2023-05-05T18:27:52.502Z,64.22
2023-05-05T18:30:19.140Z,63.66
2023-05-05T18:32:45.524Z,63.54
2023-05-05T18:35:12.594Z,63.25
2023-05-05T18:37:39.394Z,64.19
2023-05-05T18:40:06.959Z,64.73
2023-05-05T18:42:33.339Z,65.17
2023-05-05T18:44:59.710Z,66.36
2023-05-05T18:47:26.289Z,65.24
2023-05-05T18:49:52.697Z,64.92
2023-05-05T18:52:19.057Z,64.54
2023-05-05T18:54:45.452Z,64.30
2023-05-05T18:57:11.776Z,63.90
2023-05-05T18:59:38.090Z,64.70
2023-05-05T19:02:04.470Z,65.07
2023-05-05T19:04:32.128Z,64.73
2023-05-05T19:06:59.872Z,64.10
2023-05-05T19:09:26.350Z,64.00
2023-05-05T19:11:52.669Z,63.86
2023-05-05T19:14:19.070Z,63.33
2023-05-05T19:16:45.440Z,62.57
2023-05-05T19:19:11.812Z,62.37
2023-05-05T19:21:38.490Z,62.01
2023-05-05T19:24:06.567Z,61.53
2023-05-05T19:26:32.891Z,61.35
2023-05-05T19:28:59.457Z,60.51
2023-05-05T19:31:27.741Z,60.24
2023-05-05T19:34:02.219Z,60.28
2023-05-05T19:36:31.495Z,60.06
2023-05-05T19:39:01.557Z,60.18
2023-05-05T19:41:28.828Z,60.26
2023-05-05T19:43:55.287Z,60.26
2023-05-05T19:46:22.989Z,60.57
2023-05-05T19:48:49.373Z,60.93
2023-05-05T19:51:15.696Z,61.14
2023-05-05T19:53:42.706Z,61.58
2023-05-05T19:56:09.739Z,61.74
2023-05-05T19:58:57.335Z,61.65
2023-05-05T20:01:23.869Z,61.98
2023-05-05T20:03:50.951Z,61.87
2023-05-05T20:06:17.561Z,62.27
2023-05-05T20:08:43.882Z,62.85
2023-05-05T20:11:10.305Z,62.55
2023-05-05T20:13:38.101Z,62.66
2023-05-05T20:16:05.163Z,62.87
2023-05-05T20:18:31.973Z,62.52
2023-05-05T20:21:01.060Z,62.37
2023-05-05T20:23:27.868Z,62.73
2023-05-05T20:25:54.988Z,62.55
2023-05-05T20:28:21.433Z,62.52
2023-05-05T20:30:47.789Z,62.61
2023-05-05T20:33:14.125Z,62.23
2023-05-05T20:35:40.497Z,62.81
2023-05-05T20:38:06.916Z,62.92
2023-05-05T20:40:33.615Z,62.85
2023-05-05T20:43:00.076Z,62.49
2023-05-05T20:45:26.435Z,63.12
2023-05-05T20:47:53.102Z,62.61
2023-05-05T20:50:22.442Z,62.55
2023-05-05T20:52:49.348Z,62.41
2023-05-05T20:55:15.738Z,62.39
2023-05-05T20:57:42.098Z,62.28
2023-05-05T21:00:09.198Z,62.19
2023-05-05T21:02:36.330Z,62.53
2023-05-05T21:05:02.921Z,62.35
2023-05-05T21:07:31.122Z,62.92
2023-05-05T21:09:57.489Z,63.05
2023-05-05T21:12:24.051Z,62.03
2023-05-05T21:14:50.433Z,62.08
2023-05-05T21:17:16.786Z,62.16
2023-05-05T21:19:43.102Z,62.28
2023-05-05T21:22:09.444Z,61.95
2023-05-05T21:24:35.801Z,62.23
2023-05-05T21:27:02.117Z,62.35
2023-05-05T21:29:28.451Z,62.86
2023-05-05T21:31:54.887Z,63.30
2023-05-05T21:34:21.264Z,63.92
2023-05-05T21:36:47.606Z,63.92
2023-05-05T21:39:13.944Z,63.86
2023-05-05T21:41:40.263Z,64.11
2023-05-05T21:44:06.580Z,64.69
2023-05-05T21:46:32.984Z,64.77
2023-05-05T21:48:59.441Z,65.35
2023-05-05T21:51:26.430Z,65.40
2023-05-05T21:53:52.805Z,65.43
2023-05-05T21:56:19.168Z,65.59
2023-05-05T21:58:45.765Z,65.75
2023-05-05T22:01:12.166Z,65.83
2023-05-05T22:03:38.688Z,65.29
2023-05-05T22:06:05.413Z,65.19
2023-05-05T22:08:31.778Z,65.42
2023-05-05T22:10:58.109Z,65.70
2023-05-05T22:13:24.502Z,65.29
2023-05-05T22:15:50.890Z,65.26
2023-05-05T22:18:17.288Z,64.85
2023-05-05T22:20:43.937Z,64.73
2023-05-05T22:23:10.306Z,64.69
2023-05-05T22:25:36.640Z,64.49
2023-05-05T22:28:03.061Z,64.65
2023-05-05T22:30:29.469Z,64.29
2023-05-05T22:32:55.926Z,64.62
2023-05-05T22:35:22.300Z,64.40
2023-05-05T22:37:48.881Z,64.54
2023-05-05T22:40:15.255Z,64.48
2023-05-05T22:42:41.601Z,64.58
2023-05-05T22:45:08.839Z,65.34
2023-05-05T22:47:35.728Z,65.31
2023-05-05T22:50:02.136Z,65.41
2023-05-05T22:52:28.927Z,65.03
2023-05-05T22:54:56.104Z,64.73
2023-05-05T22:57:22.510Z,65.69
2023-05-05T22:59:48.962Z,65.33
2023-05-05T23:02:15.293Z,65.47
2023-05-05T23:04:45.774Z,65.48
2023-05-05T23:07:12.375Z,65.89
2023-05-05T23:09:38.759Z,66.36
2023-05-05T23:12:05.126Z,65.79
2023-05-05T23:14:31.435Z,65.87
2023-05-05T23:16:58.102Z,65.87
2023-05-05T23:19:24.543Z,66.31
2023-05-05T23:21:53.546Z,66.32
2023-05-05T23:24:21.272Z,66.66
2023-05-05T23:26:47.602Z,66.61
2023-05-05T23:29:13.950Z,67.01
2023-05-05T23:31:40.349Z,66.87
2023-05-05T23:34:06.673Z,66.96
2023-05-05T23:36:33.126Z,67.07
2023-05-05T23:38:59.472Z,67.17
2023-05-05T23:41:25.930Z,67.10
2023-05-05T23:43:52.284Z,67.14
2023-05-05T23:46:18.645Z,67.14
2023-05-05T23:48:45.173Z,67.21
2023-05-05T23:51:11.741Z,67.43
2023-05-05T23:53:38.053Z,67.05
2023-05-05T23:56:04.779Z,66.99
2023-05-05T23:58:31.150Z,67.03
